Time;durP1;ratioP1;P1;durP2;ratioP2;P2;SDS_P1;SDS_P2;PMS_P1;PMS_P2;Temp;Humidity;BMP_temperature;BMP_pressure;BME280_temperature;BME280_humidity;BME280_pressure;Samples;Min_cycle;Max_cycle;Signal;HPM_P1;HPM_P2
2021/01/20 00:02:10;;;;;;;;;;;5.70;99.90;;;;;;4887726;29;19924;-80
2021/01/20 00:04:37;;;;;;;;;;;5.70;99.90;;;;;;4886041;29;19923;-81
2021/01/20 00:07:06;;;;;;;;;;;5.70;99.90;;;;;;4879045;29;19924;-81
2021/01/20 00:09:33;;;;;;;;;;;5.70;99.90;;;;;;4907619;29;19923;-81
2021/01/20 00:12:03;;;;;;;;;;;5.70;99.90;;;;;;4926856;29;19930;-81
2021/01/20 00:14:30;;;;;;;;;;;5.70;99.90;;;;;;4920549;29;19923;-81
2021/01/20 00:16:57;;;;;;;;;;;5.70;99.90;;;;;;4884636;29;19968;-82
2021/01/20 00:19:27;;;;;;;;;;;5.70;99.90;;;;;;4891944;29;20376;-82
2021/01/20 00:21:54;;;;;;;;;;;5.70;99.90;;;;;;4903213;29;19924;-81
2021/01/20 00:24:25;;;;;;;;;;;5.70;99.90;;;;;;4891757;29;20381;-81
2021/01/20 00:26:52;;;;;;;;;;;5.70;99.90;;;;;;4868923;29;19923;-81
2021/01/20 00:29:19;;;;;;;;;;;5.60;99.90;;;;;;4887882;29;19935;-81
2021/01/20 00:31:46;;;;;;;;;;;5.60;99.90;;;;;;4880461;29;19927;-80
2021/01/20 00:34:14;;;;;;;;;;;5.60;99.90;;;;;;4895959;29;19923;-81
2021/01/20 00:36:41;;;;;;;;;;;5.60;99.90;;;;;;4894102;29;19923;-81
2021/01/20 00:39:08;;;;;;;;;;;5.60;99.90;;;;;;4893945;29;19924;-81
2021/01/20 00:41:36;;;;;;;;;;;5.50;99.90;;;;;;4887094;29;19924;-80
2021/01/20 00:44:08;;;;;;;;;;;5.50;99.90;;;;;;4898258;29;20365;-81
2021/01/20 00:46:35;;;;;;;;;;;5.50;99.90;;;;;;4891793;29;19923;-81
2021/01/20 00:49:02;;;;;;;;;;;5.40;99.90;;;;;;4901782;29;19923;-80
2021/01/20 00:51:32;;;;;;;;;;;5.40;99.90;;;;;;4911096;29;20345;-81
2021/01/20 00:54:01;;;;;;;;;;;5.40;99.90;;;;;;4917508;29;19923;-81
2021/01/20 00:56:31;;;;;;;;;;;5.40;99.90;;;;;;4902529;29;19923;-80
2021/01/20 00:59:01;;;;;;;;;;;5.30;99.90;;;;;;4894514;29;20353;-81
2021/01/20 01:01:30;;;;;;;;;;;5.30;99.90;;;;;;4901908;29;19934;-80
2021/01/20 01:03:57;;;;;;;;;;;5.30;99.90;;;;;;4893081;29;19927;-81
2021/01/20 01:06:26;;;;;;;;;;;5.30;99.90;;;;;;4890014;29;19934;-81
2021/01/20 01:08:59;;;;;;;;;;;5.30;99.90;;;;;;4891230;29;19923;-81
2021/01/20 01:11:31;;;;;;;;;;;5.30;99.90;;;;;;4885295;29;20482;-81
2021/01/20 01:13:58;;;;;;;;;;;5.20;99.90;;;;;;4904708;29;19937;-81
2021/01/20 01:17:01;;;;;;;;;;;5.20;99.90;;;;;;4912263;29;19923;-81
2021/01/20 01:19:45;;;;;;;;;;;5.20;99.90;;;;;;4895119;29;19934;-81
2021/01/20 01:22:15;;;;;;;;;;;5.10;99.90;;;;;;4904945;29;19923;-81
2021/01/20 01:24:44;;;;;;;;;;;5.10;99.90;;;;;;4928647;29;19930;-81
2021/01/20 01:27:13;;;;;;;;;;;5.10;99.90;;;;;;4896094;29;19933;-81
2021/01/20 01:29:40;;;;;;;;;;;5.00;99.90;;;;;;4877525;29;19923;-81
2021/01/20 01:32:19;;;;;;;;;;;5.00;99.90;;;;;;4899057;29;19926;-81
2021/01/20 01:34:47;;;;;;;;;;;5.00;99.90;;;;;;4881148;29;19923;-81
2021/01/20 01:37:20;;;;;;;;;;;4.90;99.90;;;;;;4889911;29;20349;-81
2021/01/20 01:40:06;;;;;;;;;;;4.90;99.90;;;;;;4893478;29;19950;-81
2021/01/20 01:42:40;;;;;;;;;;;4.90;99.90;;;;;;4878502;29;19944;-81
2021/01/20 01:45:07;;;;;;;;;;;5.00;99.90;;;;;;4878390;29;19931;-81
2021/01/20 01:47:35;;;;;;;;;;;5.00;99.90;;;;;;4874840;29;20243;-81
2021/01/20 01:50:06;;;;;;;;;;;5.00;99.90;;;;;;4909618;29;19931;-80
2021/01/20 01:52:34;;;;;;;;;;;5.00;99.90;;;;;;4920233;29;19934;-80
2021/01/20 01:55:26;;;;;;;;;;;5.00;99.90;;;;;;4888970;29;19923;-81
2021/01/20 01:58:20;;;;;;;;;;;5.00;99.90;;;;;;4867884;29;20278;-80
2021/01/20 02:00:54;;;;;;;;;;;5.00;99.90;;;;;;4894580;29;20264;-80
2021/01/20 02:03:28;;;;;;;;;;;4.90;99.90;;;;;;4884324;29;19935;-81
2021/01/20 02:05:59;;;;;;;;;;;4.90;99.90;;;;;;4920420;29;19927;-80
2021/01/20 02:08:27;;;;;;;;;;;4.90;99.90;;;;;;4904694;29;19934;-80
2021/01/20 02:11:14;;;;;;;;;;;4.90;99.90;;;;;;4908356;29;19927;-83
2021/01/20 02:13:48;;;;;;;;;;;4.80;99.90;;;;;;4911048;29;20368;-81
2021/01/20 02:16:40;;;;;;;;;;;4.80;99.90;;;;;;4912273;29;19923;-81
2021/01/20 02:19:44;;;;;;;;;;;4.90;99.90;;;;;;4906446;29;19937;-80
2021/01/20 02:22:15;;;;;;;;;;;4.90;99.90;;;;;;4890462;29;19924;-81
2021/01/20 02:24:53;;;;;;;;;;;4.90;99.90;;;;;;4917499;29;20269;-80
2021/01/20 02:27:52;;;;;;;;;;;4.90;99.90;;;;;;4884787;29;19938;-81
2021/01/20 02:30:25;;;;;;;;;;;4.90;99.90;;;;;;4913020;29;19924;-81
2021/01/20 02:33:03;;;;;;;;;;;4.90;99.90;;;;;;4907828;29;19924;-81
2021/01/20 02:35:56;;;;;;;;;;;4.90;99.90;;;;;;4897595;29;19923;-82
2021/01/20 02:38:26;;;;;;;;;;;4.90;99.90;;;;;;4904028;29;19934;-82
2021/01/20 02:41:05;;;;;;;;;;;4.90;99.90;;;;;;4900501;29;19946;-81
2021/01/20 02:43:59;;;;;;;;;;;4.90;99.90;;;;;;4922509;29;19927;-81
2021/01/20 02:46:55;;;;;;;;;;;4.90;99.90;;;;;;4913888;29;19923;-82
2021/01/20 02:49:44;;;;;;;;;;;4.90;99.90;;;;;;4907490;29;19923;-81
2021/01/20 02:52:21;;;;;;;;;;;4.90;99.90;;;;;;4921198;29;19923;-82
2021/01/20 02:55:08;;;;;;;;;;;4.90;99.90;;;;;;4918058;29;19923;-82
2021/01/20 02:57:54;;;;;;;;;;;4.90;99.90;;;;;;4909900;29;19923;-82
2021/01/20 03:00:23;;;;;;;;;;;4.80;99.90;;;;;;4935487;29;19924;-81
2021/01/20 03:03:13;;;;;;;;;;;4.90;99.90;;;;;;4934291;29;19927;-82
2021/01/20 03:05:42;;;;;;;;;;;4.90;99.90;;;;;;4940101;29;19919;-81
2021/01/20 03:08:09;;;;;;;;;;;4.90;99.90;;;;;;4927922;29;19923;-81
2021/01/20 03:10:36;;;;;;;;;;;4.90;99.90;;;;;;4928432;29;19934;-80
2021/01/20 03:13:05;;;;;;;;;;;4.80;99.90;;;;;;4927875;29;19930;-81
2021/01/20 03:15:35;;;;;;;;;;;4.80;99.90;;;;;;4921980;29;19934;-82
2021/01/20 03:18:02;;;;;;;;;;;4.80;99.90;;;;;;4914823;29;20262;-81
2021/01/20 03:20:31;;;;;;;;;;;4.90;99.90;;;;;;4920577;29;19923;-81
2021/01/20 03:23:00;;;;;;;;;;;4.90;99.90;;;;;;4922771;29;19923;-81
2021/01/20 03:25:30;;;;;;;;;;;4.90;99.90;;;;;;4919974;29;19923;-81
2021/01/20 03:27:58;;;;;;;;;;;5.00;99.90;;;;;;4926163;29;19937;-80
2021/01/20 03:30:25;;;;;;;;;;;5.10;99.90;;;;;;4913623;29;19929;-81
2021/01/20 03:32:52;;;;;;;;;;;5.10;99.90;;;;;;4926920;29;19933;-81
2021/01/20 03:35:19;;;;;;;;;;;5.10;99.90;;;;;;4903994;29;19923;-81
2021/01/20 03:37:47;;;;;;;;;;;5.20;99.90;;;;;;4925638;29;19933;-80
2021/01/20 03:40:16;;;;;;;;;;;5.30;99.90;;;;;;4910379;29;19943;-81
2021/01/20 03:42:43;;;;;;;;;;;5.30;99.90;;;;;;4930321;29;19968;-81
2021/01/20 03:45:10;;;;;;;;;;;5.40;99.90;;;;;;4917783;29;19933;-82
2021/01/20 03:47:37;;;;;;;;;;;5.40;99.90;;;;;;4929522;29;19923;-81
2021/01/20 03:50:04;;;;;;;;;;;5.40;99.90;;;;;;4923789;29;19924;-81
2021/01/20 03:52:31;;;;;;;;;;;5.40;99.90;;;;;;4920068;29;19937;-81
2021/01/20 03:55:00;;;;;;;;;;;5.50;99.90;;;;;;4928157;29;19927;-81
2021/01/20 03:57:28;;;;;;;;;;;5.50;99.90;;;;;;4924436;29;19927;-81
2021/01/20 03:59:55;;;;;;;;;;;5.50;99.90;;;;;;4894697;29;19929;-81
2021/01/20 04:02:22;;;;;;;;;;;5.50;99.90;;;;;;4926915;29;19930;-82
2021/01/20 04:04:59;;;;;;;;;;;5.50;99.90;;;;;;4929530;29;19927;-81
2021/01/20 04:07:29;;;;;;;;;;;5.50;99.90;;;;;;4915801;29;20387;-81
2021/01/20 04:10:07;;;;;;;;;;;5.50;99.90;;;;;;4916723;29;19923;-81
2021/01/20 04:12:37;;;;;;;;;;;5.60;99.90;;;;;;4926779;29;19942;-81
2021/01/20 04:15:08;;;;;;;;;;;5.50;99.90;;;;;;4927621;29;19934;-82
2021/01/20 04:17:35;;;;;;;;;;;5.50;99.90;;;;;;4920612;29;19923;-81
2021/01/20 04:20:04;;;;;;;;;;;5.50;99.90;;;;;;4895475;29;19923;-80
2021/01/20 04:22:32;;;;;;;;;;;5.50;99.90;;;;;;4915291;29;19933;-82
2021/01/20 04:25:00;;;;;;;;;;;5.50;99.90;;;;;;4900576;29;19930;-80
2021/01/20 04:27:28;;;;;;;;;;;5.50;99.90;;;;;;4919312;29;19929;-81
2021/01/20 04:29:55;;;;;;;;;;;5.50;99.90;;;;;;4927322;29;19929;-81
2021/01/20 04:32:22;;;;;;;;;;;5.50;99.90;;;;;;4934076;29;19929;-81
2021/01/20 04:34:52;;;;;;;;;;;5.50;99.90;;;;;;4900546;29;19923;-80
2021/01/20 04:37:19;;;;;;;;;;;5.60;99.90;;;;;;4894945;29;19922;-80
2021/01/20 04:39:46;;;;;;;;;;;5.60;99.90;;;;;;4911702;29;19923;-81
2021/01/20 04:42:15;;;;;;;;;;;5.50;99.90;;;;;;4879927;29;19931;-80
2021/01/20 04:44:42;;;;;;;;;;;5.50;99.90;;;;;;4916765;29;19935;-84
2021/01/20 04:47:10;;;;;;;;;;;5.50;99.90;;;;;;4895232;29;20404;-85
2021/01/20 04:49:41;;;;;;;;;;;5.50;99.90;;;;;;4912770;29;20513;-83
2021/01/20 04:52:10;;;;;;;;;;;5.50;99.90;;;;;;4911060;29;19943;-85
2021/01/20 04:54:38;;;;;;;;;;;5.40;99.90;;;;;;4904689;29;19930;-85
2021/01/20 04:57:09;;;;;;;;;;;5.50;99.90;;;;;;4915937;29;19923;-81
2021/01/20 04:59:39;;;;;;;;;;;5.60;99.90;;;;;;4909598;29;19907;-83
2021/01/20 05:02:11;;;;;;;;;;;5.60;99.90;;;;;;4938171;29;19923;-83
2021/01/20 05:04:39;;;;;;;;;;;5.60;99.90;;;;;;4918037;29;19927;-83
2021/01/20 05:07:07;;;;;;;;;;;5.60;99.90;;;;;;4923979;29;19923;-81
2021/01/20 05:09:35;;;;;;;;;;;5.60;99.90;;;;;;4926160;29;19914;-81
2021/01/20 05:12:02;;;;;;;;;;;5.50;99.90;;;;;;4921575;29;19923;-82
2021/01/20 05:14:32;;;;;;;;;;;5.50;99.90;;;;;;4915818;29;19933;-80
2021/01/20 05:17:07;;;;;;;;;;;5.50;99.90;;;;;;4928624;29;20319;-82
2021/01/20 05:19:38;;;;;;;;;;;5.50;99.90;;;;;;4894490;29;19933;-81
2021/01/20 05:22:06;;;;;;;;;;;5.60;99.90;;;;;;4921819;29;19930;-81
2021/01/20 05:24:34;;;;;;;;;;;5.60;99.90;;;;;;4916339;29;19924;-81
2021/01/20 05:27:01;;;;;;;;;;;5.60;99.90;;;;;;4907488;29;19923;-81
2021/01/20 05:29:28;;;;;;;;;;;5.60;99.90;;;;;;4927030;29;19922;-81
2021/01/20 05:31:56;;;;;;;;;;;5.60;99.90;;;;;;4919904;29;19923;-80
2021/01/20 05:34:32;;;;;;;;;;;5.60;99.90;;;;;;4926812;29;19924;-81
2021/01/20 05:37:03;;;;;;;;;;;5.60;99.90;;;;;;4902398;29;19927;-81
2021/01/20 05:39:31;;;;;;;;;;;5.60;99.90;;;;;;4930517;29;19933;-83
2021/01/20 05:42:05;;;;;;;;;;;5.70;99.90;;;;;;4923737;29;19923;-81
2021/01/20 05:44:36;;;;;;;;;;;5.60;99.90;;;;;;4904698;29;19923;-83
2021/01/20 05:47:09;;;;;;;;;;;5.60;99.90;;;;;;4905111;29;19930;-81
2021/01/20 05:49:38;;;;;;;;;;;5.70;99.90;;;;;;4923843;29;19923;-81
2021/01/20 05:52:12;;;;;;;;;;;5.70;99.90;;;;;;4930149;29;19923;-83
2021/01/20 05:54:42;;;;;;;;;;;5.80;99.90;;;;;;4890135;29;19930;-82
2021/01/20 05:57:10;;;;;;;;;;;5.70;99.90;;;;;;4908371;29;19932;-81
2021/01/20 05:59:38;;;;;;;;;;;5.80;99.90;;;;;;4921628;29;19923;-82
2021/01/20 06:02:05;;;;;;;;;;;5.80;99.90;;;;;;4902655;29;19923;-81
2021/01/20 06:04:33;;;;;;;;;;;5.80;99.90;;;;;;4918276;29;19923;-81
2021/01/20 06:07:03;;;;;;;;;;;5.90;99.90;;;;;;4916883;29;19923;-80
2021/01/20 06:09:33;;;;;;;;;;;5.90;99.90;;;;;;4901835;29;19935;-81
2021/01/20 06:12:00;;;;;;;;;;;5.90;99.90;;;;;;4927065;29;19923;-82
2021/01/20 06:14:27;;;;;;;;;;;6.00;99.90;;;;;;4884938;29;19919;-82
2021/01/20 06:17:01;;;;;;;;;;;6.00;99.90;;;;;;4930895;29;19923;-82
2021/01/20 06:19:34;;;;;;;;;;;6.00;99.90;;;;;;4912331;29;19929;-83
2021/01/20 06:22:03;;;;;;;;;;;6.00;99.90;;;;;;4927654;29;19907;-81
2021/01/20 06:24:38;;;;;;;;;;;6.10;99.90;;;;;;4899783;29;19927;-82
2021/01/20 06:27:12;;;;;;;;;;;6.10;99.90;;;;;;4928867;29;19934;-83
2021/01/20 06:29:48;;;;;;;;;;;6.10;99.90;;;;;;4913793;29;19935;-80
2021/01/20 06:32:19;;;;;;;;;;;6.10;99.90;;;;;;4923356;29;19923;-82
2021/01/20 06:34:50;;;;;;;;;;;6.20;99.90;;;;;;4907940;29;19923;-81
2021/01/20 06:37:33;;;;;;;;;;;6.30;99.90;;;;;;4915191;29;19922;-81
2021/01/20 06:40:03;;;;;;;;;;;6.30;99.90;;;;;;4916120;29;19933;-81
2021/01/20 06:42:33;;;;;;;;;;;6.20;99.90;;;;;;4919043;29;19923;-82
2021/01/20 06:45:13;;;;;;;;;;;6.30;99.90;;;;;;4900912;29;19930;-81
2021/01/20 06:48:00;;;;;;;;;;;6.30;99.90;;;;;;4912368;29;19933;-81
2021/01/20 06:50:30;;;;;;;;;;;6.30;99.90;;;;;;4910244;29;19923;-82
2021/01/20 06:53:04;;;;;;;;;;;6.30;99.90;;;;;;4939990;29;19923;-82
2021/01/20 06:55:49;;;;;;;;;;;6.30;99.90;;;;;;4913482;29;19913;-83
2021/01/20 06:58:19;;;;;;;;;;;6.30;99.90;;;;;;4944551;29;19929;-83
2021/01/20 07:01:07;;;;;;;;;;;6.30;99.90;;;;;;4936359;29;19917;-83
2021/01/20 07:03:41;;;;;;;;;;;6.30;99.90;;;;;;4943237;29;19913;-83
2021/01/20 07:06:30;;;;;;;;;;;6.30;99.90;;;;;;4925471;29;19927;-81
2021/01/20 07:08:59;;;;;;;;;;;6.30;99.90;;;;;;4926014;29;19923;-81
2021/01/20 07:11:30;;;;;;;;;;;6.30;99.90;;;;;;4918815;29;19927;-83
2021/01/20 07:14:01;;;;;;;;;;;6.30;99.90;;;;;;4893197;29;19923;-81
2021/01/20 07:16:29;;;;;;;;;;;6.30;99.90;;;;;;4934405;29;19927;-82
2021/01/20 07:18:56;;;;;;;;;;;6.30;99.90;;;;;;4929515;29;19923;-82
2021/01/20 07:21:24;;;;;;;;;;;6.30;99.90;;;;;;4910000;29;19923;-82
2021/01/20 07:23:56;;;;;;;;;;;6.30;99.90;;;;;;4904700;29;19923;-81
2021/01/20 07:26:26;;;;;;;;;;;6.30;99.90;;;;;;4917667;29;19945;-82
2021/01/20 07:29:02;;;;;;;;;;;6.30;99.90;;;;;;4908701;29;19924;-82
2021/01/20 07:31:29;;;;;;;;;;;6.40;99.90;;;;;;4923126;29;19938;-82
2021/01/20 07:33:58;;;;;;;;;;;6.40;99.90;;;;;;4922047;29;19927;-82
2021/01/20 07:36:27;;;;;;;;;;;6.40;99.90;;;;;;4901817;29;19942;-82
2021/01/20 07:38:54;;;;;;;;;;;6.40;99.90;;;;;;4902233;29;19934;-82
2021/01/20 07:41:25;;;;;;;;;;;6.40;99.90;;;;;;4902263;29;19930;-81
2021/01/20 07:44:04;;;;;;;;;;;6.40;99.90;;;;;;4907071;29;19934;-80
2021/01/20 07:46:34;;;;;;;;;;;6.40;99.90;;;;;;4934143;29;19907;-81
2021/01/20 07:49:10;;;;;;;;;;;6.50;99.90;;;;;;4895726;29;19929;-81
2021/01/20 07:51:37;;;;;;;;;;;6.50;99.90;;;;;;4917325;29;19933;-82
2021/01/20 07:54:12;;;;;;;;;;;6.50;99.90;;;;;;4934760;29;19923;-82
2021/01/20 07:56:39;;;;;;;;;;;6.50;99.90;;;;;;4891838;29;19933;-83
2021/01/20 07:59:15;;;;;;;;;;;6.50;99.90;;;;;;4911683;29;19924;-83
2021/01/20 08:01:45;;;;;;;;;;;6.50;99.90;;;;;;4911596;29;19923;-82
2021/01/20 08:04:19;;;;;;;;;;;6.50;99.90;;;;;;4904980;29;19942;-82
2021/01/20 08:06:47;;;;;;;;;;;6.60;99.90;;;;;;4903503;29;19923;-81
2021/01/20 08:09:20;;;;;;;;;;;6.60;99.90;;;;;;4887357;29;19923;-82
2021/01/20 08:11:48;;;;;;;;;;;6.60;99.90;;;;;;4917631;29;19923;-81
2021/01/20 08:14:20;;;;;;;;;;;6.60;99.90;;;;;;4917837;29;19934;-82
2021/01/20 08:16:50;;;;;;;;;;;6.60;99.90;;;;;;4934091;29;19934;-82
2021/01/20 08:19:20;;;;;;;;;;;6.60;99.90;;;;;;4917910;29;19915;-81
2021/01/20 08:21:47;;;;;;;;;;;6.70;99.90;;;;;;4935600;29;19933;-82
2021/01/20 08:24:20;;;;;;;;;;;6.70;99.90;;;;;;4907603;29;19933;-83
2021/01/20 08:27:02;;;;;;;;;;;6.70;99.90;;;;;;4922042;29;19907;-82
2021/01/20 08:29:29;;;;;;;;;;;6.70;99.90;;;;;;4928682;29;19931;-86
2021/01/20 08:32:07;;;;;;;;;;;6.70;99.90;;;;;;4939808;29;19927;-84
2021/01/20 08:34:35;;;;;;;;;;;6.80;99.90;;;;;;4922476;29;19923;-82
2021/01/20 08:37:04;;;;;;;;;;;6.80;99.90;;;;;;4914073;29;19930;-81
2021/01/20 08:39:53;;;;;;;;;;;6.80;99.90;;;;;;4908459;29;19923;-83
2021/01/20 08:42:22;;;;;;;;;;;6.80;99.90;;;;;;4895693;29;19923;-86
2021/01/20 08:45:04;;;;;;;;;;;6.80;99.90;;;;;;4896501;29;20379;-83
2021/01/20 08:47:35;;;;;;;;;;;6.90;99.90;;;;;;4903983;29;20384;-86
2021/01/20 08:50:05;;;;;;;;;;;6.90;99.90;;;;;;4900571;29;19930;-88
2021/01/20 08:52:42;;;;;;;;;;;6.90;99.90;;;;;;4914078;29;19935;-91
2021/01/20 08:55:20;;;;;;;;;;;7.10;99.90;;;;;;4885145;29;20401;-91
2021/01/20 08:58:08;;;;;;;;;;;7.20;99.90;;;;;;4914664;29;19949;-89
2021/01/20 09:00:39;;;;;;;;;;;7.30;99.90;;;;;;4888585;29;19923;-89
2021/01/20 09:03:15;;;;;;;;;;;7.40;99.90;;;;;;4887502;29;19934;-88
2021/01/20 09:05:45;;;;;;;;;;;7.50;99.90;;;;;;4896174;29;19923;-89
2021/01/20 09:08:14;;;;;;;;;;;7.60;99.90;;;;;;4888030;29;19923;-85
2021/01/20 09:10:41;;;;;;;;;;;7.50;99.90;;;;;;4924761;29;19931;-84
2021/01/20 09:13:11;;;;;;;;;;;7.40;99.90;;;;;;4895766;29;19923;-87
2021/01/20 09:15:41;;;;;;;;;;;7.40;99.90;;;;;;4891417;29;19931;-84
2021/01/20 09:18:10;;;;;;;;;;;7.50;99.90;;;;;;4910437;29;19923;-85
2021/01/20 09:20:38;;;;;;;;;;;7.50;99.90;;;;;;4921302;29;19919;-84
2021/01/20 09:23:05;;;;;;;;;;;7.50;99.90;;;;;;4919170;29;19907;-84
2021/01/20 09:25:35;;;;;;;;;;;7.40;99.90;;;;;;4948049;23;19923;-81
2021/01/20 09:28:03;;;;;;;;;;;7.40;99.90;;;;;;4896967;29;19930;-85
2021/01/20 09:30:33;;;;;;;;;;;7.40;99.90;;;;;;4908873;29;19923;-82
2021/01/20 09:33:02;;;;;;;;;;;7.30;99.90;;;;;;4921954;29;20292;-85
2021/01/20 09:35:30;;;;;;;;;;;7.40;99.90;;;;;;4938220;29;19933;-84
2021/01/20 09:37:59;;;;;;;;;;;7.40;99.90;;;;;;4890624;29;19915;-83
2021/01/20 09:40:27;;;;;;;;;;;7.30;99.90;;;;;;4920421;29;19923;-83
2021/01/20 09:42:59;;;;;;;;;;;7.30;99.90;;;;;;4934086;29;19923;-85
2021/01/20 09:45:30;;;;;;;;;;;7.30;99.90;;;;;;4922071;29;19931;-83
2021/01/20 09:48:02;;;;;;;;;;;7.30;99.90;;;;;;4897942;29;19923;-84
2021/01/20 09:50:33;;;;;;;;;;;7.20;99.90;;;;;;4937512;29;19934;-81
2021/01/20 09:53:02;;;;;;;;;;;7.10;99.90;;;;;;4909839;29;19922;-83
2021/01/20 09:55:31;;;;;;;;;;;7.10;99.90;;;;;;4917291;29;19923;-82
2021/01/20 09:58:02;;;;;;;;;;;7.20;99.90;;;;;;4910752;29;19927;-81
2021/01/20 10:00:30;;;;;;;;;;;7.30;99.90;;;;;;4905744;29;20375;-82
2021/01/20 10:03:02;;;;;;;;;;;7.30;99.90;;;;;;4917960;29;19930;-83
2021/01/20 10:05:29;;;;;;;;;;;7.40;99.90;;;;;;4913874;29;19923;-83
2021/01/20 10:07:57;;;;;;;;;;;7.40;99.90;;;;;;4903612;29;19933;-82
2021/01/20 10:10:27;;;;;;;;;;;7.40;99.90;;;;;;4916177;29;19940;-84
2021/01/20 10:12:54;;;;;;;;;;;7.40;99.90;;;;;;4920099;29;19930;-82
2021/01/20 10:15:22;;;;;;;;;;;7.50;99.90;;;;;;4938230;29;19934;-82
2021/01/20 10:17:52;;;;;;;;;;;7.60;99.90;;;;;;4913805;29;19923;-82
2021/01/20 10:20:19;;;;;;;;;;;7.60;99.90;;;;;;4909992;29;19915;-82
2021/01/20 10:22:47;;;;;;;;;;;7.60;99.90;;;;;;4921037;29;19914;-82
2021/01/20 10:25:16;;;;;;;;;;;7.70;99.90;;;;;;4888339;29;19923;-82
2021/01/20 10:27:45;;;;;;;;;;;7.70;99.90;;;;;;4916687;29;19923;-82
2021/01/20 10:30:13;;;;;;;;;;;7.80;99.90;;;;;;4925473;29;19924;-82
2021/01/20 10:32:40;;;;;;;;;;;7.90;99.90;;;;;;4920757;29;19911;-81
2021/01/20 10:35:08;;;;;;;;;;;7.90;99.90;;;;;;4912895;29;19923;-82
2021/01/20 10:37:37;;;;;;;;;;;7.90;99.90;;;;;;4929326;29;19933;-82
2021/01/20 10:40:05;;;;;;;;;;;7.90;99.90;;;;;;4915908;29;19923;-83
2021/01/20 10:42:36;;;;;;;;;;;7.90;99.90;;;;;;4903063;29;19923;-84
2021/01/20 10:45:05;;;;;;;;;;;7.90;99.90;;;;;;4901341;29;19923;-82
2021/01/20 10:47:33;;;;;;;;;;;7.90;99.90;;;;;;4886789;29;19924;-81
2021/01/20 10:50:02;;;;;;;;;;;7.90;99.90;;;;;;4903688;29;19924;-81
2021/01/20 10:52:32;;;;;;;;;;;7.90;99.90;;;;;;4899174;29;20293;-81
2021/01/20 10:55:02;;;;;;;;;;;7.90;99.90;;;;;;4927956;29;19923;-81
2021/01/20 10:57:31;;;;;;;;;;;8.00;99.90;;;;;;4922042;29;19934;-82
2021/01/20 11:00:01;;;;;;;;;;;8.00;99.90;;;;;;4901612;29;19924;-82
2021/01/20 11:02:32;;;;;;;;;;;8.00;99.90;;;;;;4894979;29;19933;-82
2021/01/20 11:04:59;;;;;;;;;;;8.00;99.90;;;;;;4907678;29;19927;-82
2021/01/20 11:07:27;;;;;;;;;;;8.00;99.90;;;;;;4912937;29;19923;-82
2021/01/20 11:09:56;;;;;;;;;;;8.00;99.90;;;;;;4917041;29;19923;-82
2021/01/20 11:18:44;;;;;;;;;;;8.10;99.90;;;;;;4927861;24;19928;-81
2021/01/20 11:21:14;;;;;;;;;;;8.10;99.90;;;;;;4927881;29;19924;-83
2021/01/20 11:23:42;;;;;;;;;;;8.10;99.90;;;;;;4906584;29;19924;-82
2021/01/20 11:26:10;;;;;;;;;;;8.10;99.90;;;;;;4906167;29;19927;-82
2021/01/20 11:28:37;;;;;;;;;;;8.10;99.90;;;;;;4907419;29;19934;-81
2021/01/20 11:31:07;;;;;;;;;;;8.20;99.90;;;;;;4909639;29;19935;-83
2021/01/20 11:33:34;;;;;;;;;;;8.20;99.90;;;;;;4908490;29;19935;-83
2021/01/20 11:36:02;;;;;;;;;;;8.20;99.90;;;;;;4909446;29;19923;-81
2021/01/20 11:38:30;;;;;;;;;;;8.20;99.90;;;;;;4898451;29;19926;-81
2021/01/20 11:40:57;;;;;;;;;;;8.20;99.90;;;;;;4889406;29;19923;-81
2021/01/20 11:43:24;;;;;;;;;;;8.20;99.90;;;;;;4908063;29;19934;-82
2021/01/20 11:45:54;;;;;;;;;;;8.30;99.90;;;;;;4887742;29;19923;-82
2021/01/20 11:48:22;;;;;;;;;;;8.20;99.90;;;;;;4898419;29;19923;-82
2021/01/20 11:50:51;;;;;;;;;;;8.20;99.90;;;;;;4896444;29;19924;-81
2021/01/20 11:53:20;;;;;;;;;;;8.20;99.90;;;;;;4876531;29;19923;-82
2021/01/20 11:55:48;;;;;;;;;;;8.20;99.90;;;;;;4897740;29;19931;-82
2021/01/20 11:58:18;;;;;;;;;;;8.20;99.90;;;;;;4892246;29;19923;-81
2021/01/20 12:00:52;;;;;;;;;;;8.30;99.90;;;;;;4892633;29;19934;-82
2021/01/20 12:03:20;;;;;;;;;;;8.30;99.90;;;;;;4900412;29;19934;-81
2021/01/20 12:05:50;;;;;;;;;;;8.30;99.90;;;;;;4895013;29;19934;-81
2021/01/20 12:08:21;;;;;;;;;;;8.30;99.90;;;;;;4893984;29;19934;-81
2021/01/20 12:10:48;;;;;;;;;;;8.30;99.90;;;;;;4923004;29;19938;-82
2021/01/20 12:13:19;;;;;;;;;;;8.40;99.90;;;;;;4907431;29;19923;-81
2021/01/20 12:15:46;;;;;;;;;;;8.40;99.90;;;;;;4861194;29;19930;-81
2021/01/20 12:18:13;;;;;;;;;;;8.40;99.90;;;;;;4901863;29;19923;-82
2021/01/20 12:20:41;;;;;;;;;;;8.40;99.90;;;;;;4881245;29;19939;-81
2021/01/20 12:23:08;;;;;;;;;;;8.50;99.80;;;;;;4876806;29;20370;-82
2021/01/20 12:25:36;;;;;;;;;;;8.50;99.90;;;;;;4872625;29;20255;-82
2021/01/20 12:28:05;;;;;;;;;;;8.50;99.90;;;;;;4883279;29;19924;-81
2021/01/20 12:30:32;;;;;;;;;;;8.50;99.80;;;;;;4883108;29;20243;-81
2021/01/20 12:33:01;;;;;;;;;;;8.60;99.90;;;;;;4880067;29;19923;-81
2021/01/20 12:35:28;;;;;;;;;;;8.60;99.70;;;;;;4877840;29;19953;-82
2021/01/20 12:37:56;;;;;;;;;;;8.60;99.60;;;;;;4875374;29;19931;-83
2021/01/20 12:40:23;;;;;;;;;;;8.60;99.90;;;;;;4898025;29;19924;-83
2021/01/20 12:42:51;;;;;;;;;;;8.60;99.60;;;;;;4896309;29;19928;-81
2021/01/20 12:45:20;;;;;;;;;;;8.70;98.90;;;;;;4884987;29;19938;-82
2021/01/20 12:47:47;;;;;;;;;;;8.70;99.00;;;;;;4876972;29;19938;-84
2021/01/20 12:50:15;;;;;;;;;;;8.70;98.80;;;;;;4881905;29;19923;-83
2021/01/20 12:52:42;;;;;;;;;;;8.80;98.80;;;;;;4884493;29;19923;-81
2021/01/20 12:55:10;;;;;;;;;;;8.80;98.50;;;;;;4874021;29;19954;-81
2021/01/20 12:57:37;;;;;;;;;;;8.80;98.70;;;;;;4882781;29;19924;-80
2021/01/20 13:00:06;;;;;;;;;;;8.80;98.30;;;;;;4877555;29;20361;-80
2021/01/20 13:02:33;;;;;;;;;;;8.80;98.20;;;;;;4875953;29;19935;-80
2021/01/20 13:05:03;;;;;;;;;;;8.90;98.20;;;;;;4877429;29;19924;-81
2021/01/20 13:07:31;;;;;;;;;;;8.90;97.70;;;;;;4883680;29;19923;-80
2021/01/20 13:09:59;;;;;;;;;;;9.00;97.50;;;;;;4856722;29;19940;-80
2021/01/20 13:12:26;;;;;;;;;;;9.00;97.60;;;;;;4875297;29;19923;-80
2021/01/20 13:14:53;;;;;;;;;;;9.10;97.20;;;;;;4883790;29;19928;-81
2021/01/20 13:17:21;;;;;;;;;;;9.10;97.60;;;;;;4888633;29;19927;-80
2021/01/20 13:19:48;;;;;;;;;;;9.20;97.30;;;;;;4883946;29;20242;-80
2021/01/20 13:22:18;;;;;;;;;;;9.20;97.30;;;;;;4901592;29;19923;-81
2021/01/20 13:24:45;;;;;;;;;;;9.30;97.40;;;;;;4886274;29;19923;-81
2021/01/20 13:27:12;;;;;;;;;;;9.40;97.30;;;;;;4902739;29;19933;-80
2021/01/20 13:29:39;;;;;;;;;;;9.40;96.70;;;;;;4884511;29;20530;-80
2021/01/20 13:32:09;;;;;;;;;;;9.40;96.90;;;;;;4919909;29;19914;-83
2021/01/20 13:34:41;;;;;;;;;;;9.50;96.70;;;;;;4905456;29;19938;-84
2021/01/20 13:37:10;;;;;;;;;;;9.50;96.00;;;;;;4916059;29;20239;-83
2021/01/20 13:39:37;;;;;;;;;;;9.50;96.00;;;;;;4920042;29;19923;-83
2021/01/20 13:42:05;;;;;;;;;;;9.40;95.80;;;;;;4913590;29;20354;-82
2021/01/20 13:44:32;;;;;;;;;;;9.50;95.70;;;;;;4897515;29;19929;-82
2021/01/20 13:46:59;;;;;;;;;;;9.40;96.40;;;;;;4897713;29;19923;-83
2021/01/20 13:49:26;;;;;;;;;;;9.40;96.30;;;;;;4879920;29;19933;-82
2021/01/20 13:51:54;;;;;;;;;;;9.40;96.40;;;;;;4879550;29;19930;-82
2021/01/20 13:54:23;;;;;;;;;;;9.40;96.50;;;;;;4897477;29;19933;-82
2021/01/20 13:56:53;;;;;;;;;;;9.50;96.20;;;;;;4911953;29;19923;-82
2021/01/20 13:59:20;;;;;;;;;;;9.70;95.60;;;;;;4898075;29;19927;-83
2021/01/20 14:01:49;;;;;;;;;;;10.10;93.90;;;;;;4909743;29;20353;-82
2021/01/20 14:04:16;;;;;;;;;;;10.70;90.50;;;;;;4879867;29;19934;-81
2021/01/20 14:06:44;;;;;;;;;;;10.60;87.90;;;;;;4877843;29;19931;-82
2021/01/20 14:09:12;;;;;;;;;;;10.60;87.40;;;;;;4890796;29;20674;-81
2021/01/20 14:11:41;;;;;;;;;;;10.40;85.80;;;;;;4904454;29;20253;-82
2021/01/20 14:14:08;;;;;;;;;;;10.10;90.70;;;;;;4907466;29;19934;-83
2021/01/20 14:16:36;;;;;;;;;;;9.80;92.20;;;;;;4909882;29;19923;-83
2021/01/20 14:19:03;;;;;;;;;;;9.60;93.10;;;;;;4877439;29;19934;-82
2021/01/20 14:21:31;;;;;;;;;;;9.50;94.00;;;;;;4911977;29;19924;-83
2021/01/20 14:23:58;;;;;;;;;;;9.50;93.90;;;;;;4926780;29;19938;-82
2021/01/20 14:26:26;;;;;;;;;;;9.40;93.70;;;;;;4926400;29;19924;-82
2021/01/20 14:28:53;;;;;;;;;;;9.30;94.60;;;;;;4912723;29;19924;-82
2021/01/20 14:31:25;;;;;;;;;;;9.20;95.70;;;;;;4896750;29;19923;-81
2021/01/20 14:33:54;;;;;;;;;;;9.20;96.20;;;;;;4894779;29;19924;-82
2021/01/20 14:36:25;;;;;;;;;;;9.10;96.60;;;;;;4911422;29;20256;-82
2021/01/20 14:38:52;;;;;;;;;;;9.00;96.60;;;;;;4895064;29;19923;-83
2021/01/20 14:41:19;;;;;;;;;;;9.00;97.20;;;;;;4911907;29;19924;-83
2021/01/20 14:43:48;;;;;;;;;;;9.00;97.30;;;;;;4909964;29;19923;-83
2021/01/20 14:46:15;;;;;;;;;;;8.90;97.40;;;;;;4895136;29;19923;-82
2021/01/20 14:48:44;;;;;;;;;;;8.90;97.70;;;;;;4913757;29;19923;-82
2021/01/20 14:51:14;;;;;;;;;;;8.90;97.70;;;;;;4899856;29;20276;-84
2021/01/20 14:53:42;;;;;;;;;;;8.80;97.90;;;;;;4899586;29;19924;-82
2021/01/20 14:56:09;;;;;;;;;;;8.80;98.40;;;;;;4917289;29;19934;-85